Latest Weather Observations for Canberra

IDN60801

Issued at 3:23 pm EDT Tuesday 29 November 2022 (issued every 10 minutes, with the page automatically refreshed every 10 minutes)

About weather observations | Map of weather stations | Latest weather observations for NSW | Other Formats
Station Details ID: 070351 Name: CANBERRA AIRPORT Lat: -35.31 Lon: 149.20 Height: 577.05 m
Data from the previous 72 hours. | See also: Recent months at Canberra
Date/Time
EDT
Temp
°C
App
Temp
°C
Dew
Point
°C
Rel
Hum
%
Delta-T
°C
Wind Press
QNH
hPa
Press
MSL
hPa
Rain since
9am
mm
Dir  Spd
km/h
Gust
km/h
Spd
kts
Gust
kts
29/03:00pm 21.2 17.8 7.8 42 7.2 N 15 26 8 14 1012.6 1011.1 0.0
29/02:30pm 21.7 18.4 8.2 42 7.3 NNW 15 22 8 12 1012.6 1011.1 0.0
29/02:00pm 20.9 17.5 6.1 38 7.6 N 13 19 7 10 1012.6 1011.1 0.0
29/01:30pm 21.0 18.5 5.0 35 8.1 SSW 7 13 4 7 1012.9 1011.4 0.0
29/01:00pm 19.7 15.3 4.6 37 7.5 NNW 17 28 9 15 1013.1 1011.6 0.0
29/12:30pm 19.6 16.1 5.6 40 7.1 N 13 17 7 9 1013.3 1011.9 0.0
29/12:00pm 19.0 15.9 5.5 41 6.8 W 11 20 6 11 1013.3 1011.9 0.0
29/11:30am 18.3 14.8 5.5 43 6.4 WNW 13 26 7 14 1013.3 1011.9 0.0
29/11:00am 17.6 14.0 4.9 43 6.3 W 13 22 7 12 1013.4 1012.0 0.0
29/10:30am 17.5 13.6 7.0 50 5.4 WNW 17 26 9 14 1013.4 1012.0 0.0
29/10:00am 16.3 13.7 6.2 51 5.1 NNW 9 15 5 8 1013.2 1011.8 0.0
29/09:30am 15.6 12.0 5.2 50 5.1 NW 13 26 7 14 1013.3 1011.9 0.0
29/09:00am 15.2 11.3 5.4 52 4.8 W 15 20 8 11 1013.1 1011.6 0.0
29/08:30am 14.8 10.6 5.6 54 4.5 WNW 17 26 9 14 1012.9 1011.4 0.0
29/08:00am 13.6 11.2 5.3 57 4.0 NW 7 13 4 7 1012.7 1011.2 0.0
29/07:30am 12.7 10.0 3.9 55 4.1 NE 7 11 4 6 1012.5 1011.0 0.0
29/07:00am 10.6 9.0 6.2 74 2.1 SE 4 9 2 5 1012.0 1010.6 0.0
29/06:30am 6.6 3.3 4.4 86 1.0 ESE 11 13 6 7 1011.7 1010.3 0.0
29/06:00am 5.6 1.7 3.6 87 0.9 ESE 13 15 7 8 1011.5 1010.0 0.0
29/05:30am 6.8 2.8 2.9 76 1.7 WNW 13 19 7 10 1010.9 1009.4 0.0
29/05:00am 7.1 3.6 3.3 77 1.7 SW 11 15 6 8 1010.3 1008.9 0.0
29/04:30am 9.2 5.4 3.8 69 2.4 WNW 13 17 7 9 1010.0 1008.5 0.0
29/04:00am 11.2 6.7 4.0 61 3.3 WNW 17 22 9 12 1009.9 1008.4 0.0
29/03:30am 11.9 7.8 4.6 61 3.4 W 15 24 8 13 1009.9 1008.4 0.0
29/03:00am 10.9 7.2 4.6 65 2.9 WNW 13 17 7 9 1009.9 1008.4 0.0
29/02:30am 10.3 6.6 4.5 67 2.7 WNW 13 19 7 10 1009.8 1008.3 0.0
29/02:00am 11.1 7.5 4.8 65 3.0 N 13 17 7 9 1009.8 1008.3 0.0
29/01:30am 11.7 7.7 4.7 62 3.3 NNW 15 19 8 10 1010.1 1008.6 0.0
29/01:00am 12.1 8.1 4.8 61 3.5 NNW 15 20 8 11 1010.1 1008.6 0.0
29/12:30am 12.3 8.0 5.2 62 3.4 NW 17 26 9 14 1010.2 1008.8 0.0
29/12:00am 11.6 8.4 5.0 64 3.1 WNW 11 17 6 9 1010.3 1008.9 0.0
 
Date/Time
EDT
Temp
°C
App
Temp
°C
Dew
Point
°C
Rel
Hum
%
Delta-T
°C
Wind Press
QNH
hPa
Press
MSL
hPa
Rain since
9am
mm
Dir  Spd
km/h
Gust
km/h
Spd
kts
Gust
kts
28/11:30pm 12.6 7.9 5.1 60 3.6 WNW 19 26 10 14 1010.0 1008.5 0.0
28/11:00pm 14.2 9.0 5.3 55 4.3 WNW 22 30 12 16 1009.8 1008.3 0.0
28/10:30pm 12.6 8.3 5.3 61 3.5 NW 17 22 9 12 1009.6 1008.1 0.0
28/10:00pm 14.5 9.8 5.3 54 4.5 WNW 19 28 10 15 1009.3 1007.8 0.0
28/09:30pm 12.6 9.4 5.1 60 3.6 WNW 11 19 6 10 1009.1 1007.6 0.0
28/09:00pm 14.1 10.2 5.5 56 4.2 N 15 17 8 9 1008.6 1007.1 0.0
28/08:30pm 15.3 11.4 5.2 51 4.9 WNW 15 22 8 12 1008.2 1006.7 0.0
28/08:00pm 16.2 11.5 5.2 48 5.4 WNW 19 28 10 15 1008.0 1006.5 0.0
28/07:30pm 17.5 11.5 5.4 45 6.0 WNW 26 37 14 20 1007.7 1006.2 0.0
28/07:00pm 18.1 12.0 4.7 41 6.6 WNW 26 35 14 19 1007.2 1005.7 0.0
28/06:30pm 19.1 13.6 5.9 42 6.7 WNW 24 33 13 18 1006.7 1005.2 0.0
28/06:00pm 19.5 12.8 5.6 40 7.1 WNW 30 39 16 21 1006.2 1004.7 0.0
28/05:30pm 19.6 12.7 6.4 42 6.8 NW 32 41 17 22 1006.1 1004.6 0.0
28/05:00pm 20.4 14.8 7.1 42 7.0 NW 26 37 14 20 1005.9 1004.4 0.0
28/04:30pm 20.0 14.7 6.7 42 6.9 NW 24 39 13 21 1006.0 1004.5 0.0
28/04:05pm 20.7 15.2 7.7 43 6.9 NW 26 46 14 25 1006.0 1004.5 0.0
28/04:00pm 20.2 14.9 6.9 42 7.0 NW 24 37 13 20 1006.0 1004.5 0.0
28/03:30pm 20.8 15.4 6.4 39 7.5 WNW 24 35 13 19 1006.1 1004.6 0.0
28/03:00pm 20.5 13.9 7.8 44 6.8 NW 32 50 17 27 1006.0 1004.5 0.0
28/02:30pm 20.6 12.9 6.9 41 7.2 NNW 37 50 20 27 1006.2 1004.7 0.0
28/02:12pm 20.9 13.0 6.4 39 7.5 NNW 37 57 20 31 1006.1 1004.6 0.0
28/02:00pm 20.3 12.7 5.9 39 7.4 NW 35 48 19 26 1006.1 1004.6 0.0
28/01:30pm 21.0 14.2 6.9 40 7.4 NNW 32 46 17 25 1006.2 1004.7 0.0
28/01:00pm 20.1 13.6 6.5 41 7.1 NNW 30 41 16 22 1006.3 1004.8 0.0
28/12:30pm 19.7 13.2 4.6 37 7.5 NNW 28 41 15 22 1006.6 1005.1 0.0
28/12:00pm 19.1 13.9 7.2 46 6.2 NW 24 37 13 20 1006.8 1005.3 0.0
28/11:30am 19.4 14.6 8.7 50 5.7 NW 24 44 13 24 1006.8 1005.3 0.0
28/11:00am 19.1 15.2 9.6 54 5.2 NW 20 32 11 17 1007.0 1005.4 0.0
28/10:30am 17.2 12.6 8.1 55 4.8 NW 22 32 12 17 1007.3 1005.8 0.0
28/10:00am 17.4 14.0 7.5 52 5.2 NW 15 20 8 11 1007.3 1005.8 0.0
28/09:30am 16.1 13.9 9.3 64 3.6 W 11 17 6 9 1007.6 1006.1 0.0
28/09:00am 16.6 15.2 12.2 75 2.5 NNW 11 17 6 9 1007.7 1006.2 0.0
28/08:30am 15.2 13.8 12.3 83 1.6 N 11 17 6 9 1007.8 1006.3 0.0
28/08:00am 14.0 13.0 12.2 89 1.0 N 9 11 5 6 1007.7 1006.2 0.0
28/07:30am 13.7 12.7 12.4 92 0.7 NNE 9 11 5 6 1007.5 1006.0 0.0
28/07:17am 13.1 13.6 12.8 98 0.2 ENE 2 7 1 4 1007.4 1005.9 0.0
28/07:00am 12.6 12.0 12.4 99 0.1 ESE 7 9 4 5 1007.2 1005.7 0.0
28/06:44am 12.0 12.6 11.8 99 0.1 CALM 0 0 0 0 1007.1 1005.5 0.0
28/06:30am 11.8 12.4 11.8 100 0.0 CALM 0 0 0 0 1007.1 1005.5 0.0
28/06:00am 11.3 11.7 11.3 100 0.0 CALM 0 0 0 0 1006.6 1005.1 0.0
28/05:30am 10.2 10.3 10.1 99 0.1 CALM 0 0 0 0 1006.3 1004.8 0.0
28/05:00am 10.0 9.7 10.0 100 0.0 ESE 2 7 1 4 1006.0 1004.5 0.0
28/04:30am 10.3 10.4 10.3 100 0.0 CALM 0 0 0 0 1005.7 1004.2 0.0
28/04:21am 9.5 9.4 9.5 100 0.0 CALM 0 0 0 0 1005.6 1004.0 0.0
28/04:18am 10.5 10.7 10.5 100 0.0 CALM 0 0 0 0 1005.5 1003.9 0.0
28/04:00am 8.5 6.8 8.4 99 0.1 SE 7 9 4 5 1005.3 1003.7 0.0
28/03:56am 8.1 6.3 7.8 98 0.1 SE 7 9 4 5 1005.3 1003.7 0.0
28/03:30am 10.0 9.3 9.9 99 0.1 ESE 4 7 2 4 1005.1 1003.5 0.0
28/03:00am 11.2 10.4 11.0 99 0.1 ESE 6 7 3 4 1004.9 1003.4 0.0
28/02:30am 9.5 8.6 9.4 99 0.1 SE 4 13 2 7 1005.1 1003.5 0.0
28/02:00am 10.0 8.6 9.5 97 0.3 SE 7 7 4 4 1005.2 1003.6 0.0
28/01:30am 11.6 10.3 11.1 97 0.3 E 9 11 5 6 1005.2 1003.6 0.0
28/01:00am 11.1 9.9 9.7 91 0.7 ENE 6 13 3 7 1005.3 1003.7 0.0
28/12:30am 13.8 14.6 12.4 91 0.8 CALM 0 0 0 0 1005.3 1003.7 0.0
28/12:00am 14.6 15.3 12.3 86 1.3 CALM 0 0 0 0 1005.4 1003.8 0.0
 
Date/Time
EDT
Temp
°C
App
Temp
°C
Dew
Point
°C
Rel
Hum
%
Delta-T
°C
Wind Press
QNH
hPa
Press
MSL
hPa
Rain since
9am
mm
Dir  Spd
km/h
Gust
km/h
Spd
kts
Gust
kts
27/11:30pm 12.0 11.3 10.1 88 1.0 S 4 7 2 4 1005.5 1003.9 0.0
27/11:00pm 14.1 14.1 12.3 89 1.0 E 4 7 2 4 1005.4 1003.8 0.0
27/10:30pm 14.5 14.0 12.0 85 1.4 SW 6 9 3 5 1005.3 1003.7 0.0
27/10:00pm 16.4 16.5 13.9 85 1.5 ENE 6 11 3 6 1004.9 1003.4 0.0
27/09:30pm 16.5 14.7 13.4 82 1.8 NNW 15 19 8 10 1004.4 1002.9 0.0
27/09:00pm 16.6 14.5 13.5 82 1.8 NNW 17 19 9 10 1004.0 1002.4 0.0
27/08:30pm 17.4 15.3 13.7 79 2.2 NNW 17 20 9 11 1003.9 1002.3 0.0
27/08:00pm 17.2 16.1 13.1 77 2.4 NW 11 15 6 8 1003.9 1002.3 0.0
27/07:30pm 18.0 15.9 13.5 75 2.6 W 17 24 9 13 1003.8 1002.2 0.0
27/07:22pm 19.0 16.4 13.2 69 3.4 WNW 19 26 10 14 1003.7 1002.1 0.0
27/07:00pm 19.1 14.5 13.5 70 3.3 NNW 30 37 16 20 1003.3 1001.7 0.0
27/06:57pm 19.9 15.7 13.4 66 3.8 NNW 28 35 15 19 1003.1 1001.6 0.0
27/06:30pm 21.4 17.9 12.3 56 5.3 NNW 22 28 12 15 1002.5 1000.9 0.0
27/06:00pm 22.1 18.4 12.6 55 5.6 NW 24 32 13 17 1002.3 1000.7 0.0
27/05:30pm 22.5 18.6 12.2 52 6.0 NNW 24 32 13 17 1001.9 1000.3 0.0
27/05:00pm 23.8 20.3 12.1 48 6.9 NNW 22 28 12 15 1002.0 1000.4 0.0
27/04:30pm 23.6 18.8 11.6 47 6.9 NNW 28 35 15 19 1002.3 1000.7 0.0
27/04:00pm 22.7 17.4 11.4 49 6.5 NNW 30 35 16 19 1002.1 1000.5 0.0
27/03:41pm 23.3 17.5 10.7 45 7.2 NNW 32 50 17 27 1002.4 1000.8 0.0
27/03:30pm 24.7 19.1 12.0 45 7.4 NNW 33 50 18 27 1002.6 1001.1 0.0
27/03:28pm 24.7 19.4 12.6 47 7.1 NNW 32 50 17 27 1002.6 1001.1 0.0
27/03:00pm 23.7 17.6 9.7 41 7.9 NNW 32 44 17 24 1002.7 1001.2 0.0
27/02:30pm 23.3 17.4 11.0 46 7.0 NW 33 44 18 24 1002.9 1001.4 0.0
27/02:00pm 22.8 16.9 9.2 42 7.5 WNW 30 56 16 30 1003.4 1001.8 0.0
27/01:30pm 23.8 19.1 10.8 44 7.4 W 26 39 14 21 1003.7 1002.1 0.0
27/01:00pm 21.7 16.2 12.0 54 5.6 NNW 32 37 17 20 1003.8 1002.2 0.0
27/12:30pm 22.8 17.5 12.4 52 6.1 NNW 32 41 17 22 1004.1 1002.5 0.0
27/12:00pm 22.1 18.5 11.8 52 6.0 NNW 22 30 12 16 1004.0 1002.4 0.0
27/11:30am 21.2 18.6 12.1 56 5.2 NNW 17 22 9 12 1004.4 1002.9 0.0
27/11:00am 20.5 17.4 11.7 57 5.0 NNW 19 26 10 14 1004.6 1003.1 0.0
27/10:30am 18.5 14.9 10.6 60 4.4 N 20 26 11 14 1004.8 1003.3 0.0
27/10:00am 19.3 14.8 10.0 55 5.1 NNW 24 32 13 17 1005.7 1004.2 0.0
27/09:30am 19.4 15.6 9.9 54 5.2 N 20 30 11 16 1005.2 1003.6 0.0
27/09:00am 18.1 17.2 11.2 64 3.9 WSW 7 9 4 5 1005.5 1003.9 0.0
27/08:46am 17.7 16.7 11.0 65 3.7 SSW 7 7 4 4 1005.3 1003.7 0.0
27/08:30am 17.4 16.1 11.2 67 3.5 SW 9 11 5 6 1005.3 1003.7 0.0
27/08:18am 17.7 16.6 10.8 64 3.8 NW 7 9 4 5 1005.4 1003.8 0.0
27/08:00am 16.8 16.1 11.3 70 3.1 NNE 6 11 3 6 1005.2 1003.6 0.0
27/07:30am 14.5 15.1 11.8 84 1.5 CALM 0 0 0 0 1005.1 1003.5 0.0
27/07:13am 13.8 14.0 11.7 87 1.2 E 2 7 1 4 1005.2 1003.6 0.0
27/07:00am 13.7 12.9 11.6 87 1.2 W 7 9 4 5 1005.1 1003.5 0.0
27/06:35am 13.2 12.3 10.6 84 1.4 ESE 6 7 3 4 1005.1 1003.5 0.0
27/06:30am 13.1 12.1 10.3 83 1.5 E 6 9 3 5 1005.1 1003.5 0.0
27/06:00am 12.9 11.0 10.4 85 1.3 NE 11 13 6 7 1005.4 1003.8 0.0
27/05:30am 12.3 12.4 10.2 87 1.1 CALM 0 0 0 0 1005.7 1004.2 0.0
27/05:00am 12.1 12.2 10.3 89 1.0 CALM 0 0 0 0 1005.2 1003.6 0.0
27/04:30am 12.2 12.2 9.9 86 1.2 CALM 0 0 0 0 1005.4 1003.8 0.0
27/04:00am 11.5 11.1 9.6 88 1.0 NE 2 7 1 4 1005.6 1004.0 0.0
27/03:30am 11.9 11.8 9.5 85 1.3 CALM 0 0 0 0 1005.8 1004.3 0.0
27/03:00am 11.1 11.0 9.4 89 0.9 CALM 0 0 0 0 1005.9 1004.4 0.0
27/02:30am 11.9 10.3 8.7 81 1.6 NE 7 9 4 5 1006.3 1004.8 0.0
27/02:00am 12.2 11.4 9.6 84 1.4 NE 4 7 2 4 1006.7 1005.2 0.0
27/01:30am 11.4 9.9 9.1 86 1.2 NE 7 9 4 5 1007.3 1005.8 0.0
27/01:00am 12.1 11.5 8.8 80 1.7 NE 2 7 1 4 1007.6 1006.1 0.0
27/12:30am 11.1 10.6 7.8 80 1.7 CALM 0 0 0 0 1007.9 1006.4 0.0
27/12:00am 12.3 11.7 7.6 73 2.4 CALM 0 0 0 0 1008.2 1006.7 0.0
 
Date/Time
EDT
Temp
°C
App
Temp
°C
Dew
Point
°C
Rel
Hum
%
Delta-T
°C
Wind Press
QNH
hPa
Press
MSL
hPa
Rain since
9am
mm
Dir  Spd
km/h
Gust
km/h
Spd
kts
Gust
kts
26/11:30pm 13.3 11.7 8.0 70 2.7 NE 6 6 3 3 1008.9 1007.4 0.0
26/11:00pm 13.0 12.4 7.5 69 2.8 CALM 0 0 0 0 1009.4 1007.9 0.0
26/10:30pm 15.5 15.1 8.3 62 3.7 CALM 0 0 0 0 1009.6 1008.1 0.0
26/10:00pm 13.5 11.5 7.1 65 3.2 N 7 13 4 7 1009.9 1008.4 0.0
26/09:30pm 16.0 13.1 8.0 59 4.2 N 13 15 7 8 1009.8 1008.3 0.0
26/09:00pm 17.0 13.7 8.2 56 4.6 NNW 15 17 8 9 1009.7 1008.2 0.0
26/08:30pm 18.2 14.5 7.9 51 5.4 N 17 20 9 11 1009.6 1008.1 0.0
26/08:00pm 19.2 14.2 7.9 48 6.0 NNW 24 28 13 15 1009.3 1007.8 0.0
26/07:30pm 20.7 15.6 7.7 43 6.9 NNW 24 32 13 17 1009.0 1007.5 0.0
26/07:00pm 21.6 16.2 8.1 42 7.3 N 26 32 14 17 1009.0 1007.5 0.0
26/06:30pm 22.7 17.6 7.7 38 8.1 NNW 24 33 13 18 1009.0 1007.5 0.0
26/06:00pm 22.1 17.0 7.5 39 7.8 NNW 24 32 13 17 1009.0 1007.5 0.0
26/05:30pm 22.0 16.1 7.4 39 7.8 NNW 28 35 15 19 1008.9 1007.4 0.0
26/05:00pm 22.8 17.0 7.8 38 8.1 NNW 28 35 15 19 1009.4 1007.9 0.0
26/04:30pm 22.8 18.1 9.2 42 7.5 NNW 24 32 13 17 1009.6 1008.1 0.0
26/04:00pm 22.5 18.0 7.1 37 8.2 NNW 20 30 11 16 1010.1 1008.6 0.0
26/03:30pm 23.3 19.8 8.6 39 8.1 N 17 26 9 14 1010.7 1009.2 0.0

Other formats

Comma delimited format used in spreadsheet applications
http://www.bom.gov.au/fwo/IDN60801/IDN60801.94926.axf

JavaScript Object Notation format (JSON) in row-major order
http://www.bom.gov.au/fwo/IDN60801/IDN60801.94926.json

Data quality

Most of these data are generated automatically and are frequently updated. Quality checks on data are not normally performed. It is possible for incorrect values to appear. Refer to information at About Latest Weather Observations and please check the disclaimer before using these data.